createdAt,value
2022-12-28T00:02:13.226Z,101300.06
2022-12-28T00:04:39.874Z,101301.25
2022-12-28T00:07:06.515Z,101302.00
2022-12-28T00:09:33.135Z,101296.09
2022-12-28T00:11:59.894Z,101297.41
2022-12-28T00:14:26.528Z,101289.97
2022-12-28T00:16:53.281Z,101290.88
2022-12-28T00:19:19.998Z,101283.44
2022-12-28T00:21:47.197Z,101271.56
2022-12-28T00:24:23.151Z,101262.03
2022-12-28T00:26:50.100Z,101260.00
2022-12-28T00:29:17.753Z,101254.72
2022-12-28T00:31:45.941Z,101251.03
2022-12-28T00:34:13.373Z,101247.31
2022-12-28T00:37:09.757Z,101245.66
2022-12-28T00:39:29.307Z,101249.19
2022-12-28T00:41:55.940Z,101236.84
2022-12-28T00:44:22.543Z,101237.53
2022-12-28T00:46:49.196Z,101227.03
2022-12-28T00:49:15.824Z,101226.81
2022-12-28T00:51:42.646Z,101220.09
2022-12-28T00:54:09.641Z,101212.25
2022-12-28T00:56:36.372Z,101205.97
2022-12-28T00:59:03.275Z,101205.91
2022-12-28T01:01:30.216Z,101202.16
2022-12-28T01:03:58.784Z,101192.00
2022-12-28T01:06:26.610Z,101184.91
2022-12-28T01:08:53.375Z,101179.44
2022-12-28T01:11:25.716Z,101172.84
2022-12-28T01:13:55.682Z,101168.53
2022-12-28T01:16:32.712Z,101168.78
2022-12-28T01:19:01.543Z,101172.34
2022-12-28T01:21:31.092Z,101165.91
2022-12-28T01:24:00.567Z,101158.25
2022-12-28T01:26:28.167Z,101149.16
2022-12-28T01:28:56.200Z,101150.03
2022-12-28T01:31:23.218Z,101148.75
2022-12-28T01:33:51.304Z,101142.31
2022-12-28T01:36:21.330Z,101149.78
2022-12-28T01:38:49.065Z,101145.75
2022-12-28T01:41:18.148Z,101136.19
2022-12-28T01:44:07.793Z,101135.31
2022-12-28T01:46:57.782Z,101120.00
2022-12-28T01:49:52.862Z,101119.97
2022-12-28T01:52:53.462Z,101131.25
2022-12-28T01:55:27.273Z,101111.84
2022-12-28T01:58:00.993Z,101105.28
2022-12-28T02:00:28.211Z,101102.75
2022-12-28T02:02:58.741Z,101094.81
2022-12-28T02:05:29.571Z,101093.94
2022-12-28T02:08:08.004Z,101088.84
2022-12-28T02:10:41.209Z,101086.81
2022-12-28T02:13:15.711Z,101088.59
2022-12-28T02:15:42.965Z,101088.53
2022-12-28T02:18:10.773Z,101107.91
2022-12-28T02:20:49.587Z,101101.59
2022-12-28T02:23:38.398Z,101090.38
2022-12-28T02:26:05.014Z,101094.00
2022-12-28T02:28:43.576Z,101087.72
2022-12-28T02:31:20.944Z,101080.72
2022-12-28T02:33:57.439Z,101065.59
2022-12-28T02:36:30.542Z,101067.91
2022-12-28T02:39:05.695Z,101077.16
2022-12-28T02:41:34.329Z,101084.53
2022-12-28T02:44:01.503Z,101080.66
2022-12-28T02:46:48.479Z,101084.22
2022-12-28T02:49:41.940Z,101081.47
2022-12-28T02:52:11.444Z,101068.78
2022-12-28T02:55:08.860Z,101070.63
2022-12-28T02:57:54.649Z,101052.63
2022-12-28T03:00:25.935Z,101058.91
2022-12-28T03:03:43.992Z,101041.97
2022-12-28T03:07:18.159Z,101040.41
2022-12-28T03:10:07.089Z,101038.56
2022-12-28T03:12:42.987Z,101040.06
2022-12-28T03:15:15.346Z,101041.22
2022-12-28T03:18:02.846Z,101040.03
2022-12-28T03:20:50.802Z,101040.53
2022-12-28T03:23:40.267Z,101043.56
2022-12-28T03:26:29.193Z,101043.25
2022-12-28T03:29:18.273Z,101040.78
2022-12-28T03:31:45.257Z,101035.88
2022-12-28T03:34:14.884Z,101017.63
2022-12-28T03:37:02.612Z,101018.94
2022-12-28T03:39:36.501Z,101014.63
2022-12-28T03:42:33.842Z,101008.63
2022-12-28T03:45:09.583Z,101010.50
2022-12-28T03:47:38.730Z,101006.94
2022-12-28T03:50:06.001Z,101002.47
2022-12-28T03:52:33.577Z,100984.06
2022-12-28T03:55:03.631Z,100978.34
2022-12-28T03:57:30.507Z,100962.28
2022-12-28T03:59:57.533Z,100962.25
2022-12-28T04:02:24.252Z,100967.34
2022-12-28T04:04:51.537Z,100969.00
2022-12-28T04:07:18.245Z,100968.59
2022-12-28T04:09:44.964Z,100960.78
2022-12-28T04:12:12.941Z,100956.75
2022-12-28T04:15:09.455Z,100955.72
2022-12-28T04:17:36.150Z,100952.66
2022-12-28T04:20:03.850Z,100951.91
2022-12-28T04:22:31.036Z,100956.84
2022-12-28T04:24:58.915Z,100958.94
2022-12-28T04:27:25.668Z,100948.22
2022-12-28T04:29:55.910Z,100945.94
2022-12-28T04:32:24.813Z,100943.44
2022-12-28T04:34:51.410Z,100940.81
2022-12-28T04:37:18.867Z,100938.56
2022-12-28T04:39:55.298Z,100936.50
2022-12-28T04:42:27.259Z,100931.41
2022-12-28T04:44:53.923Z,100948.69
2022-12-28T04:47:20.871Z,100936.16
2022-12-28T04:49:47.607Z,100940.06
2022-12-28T04:52:14.310Z,100943.50
2022-12-28T04:54:40.964Z,100930.19
2022-12-28T04:57:07.601Z,100925.06
2022-12-28T04:59:34.272Z,100926.47
2022-12-28T05:02:01.197Z,100938.97
2022-12-28T05:04:28.041Z,100948.41
2022-12-28T05:06:54.629Z,100943.69
2022-12-28T05:09:21.448Z,100944.88
2022-12-28T05:11:48.346Z,100938.19
2022-12-28T05:14:15.078Z,100936.56
2022-12-28T05:16:42.270Z,100935.50
2022-12-28T05:19:09.061Z,100935.50
2022-12-28T05:21:35.639Z,100929.78
2022-12-28T05:24:02.270Z,100918.22
2022-12-28T05:26:29.688Z,100919.13
2022-12-28T05:28:58.432Z,100910.22
2022-12-28T05:31:25.211Z,100904.28
2022-12-28T05:33:52.631Z,100905.75
2022-12-28T05:36:24.556Z,100898.06
2022-12-28T05:38:52.857Z,100910.03
2022-12-28T05:41:21.984Z,100910.47
2022-12-28T05:43:49.259Z,100902.91
2022-12-28T05:46:19.416Z,100908.84
2022-12-28T05:48:47.017Z,100898.63
2022-12-28T05:51:18.070Z,100896.31
2022-12-28T05:53:45.238Z,100892.47
2022-12-28T05:56:14.971Z,100887.09
2022-12-28T05:58:43.059Z,100887.28
2022-12-28T06:01:15.934Z,100887.94
2022-12-28T06:03:43.223Z,100894.53
2022-12-28T06:06:16.057Z,100892.47
2022-12-28T06:08:44.690Z,100891.34
2022-12-28T06:11:14.304Z,100887.09
2022-12-28T06:13:41.338Z,100887.44
2022-12-28T06:16:11.851Z,100884.19
2022-12-28T06:18:38.565Z,100889.75
2022-12-28T06:21:19.728Z,100889.13
2022-12-28T06:23:47.087Z,100889.53
2022-12-28T06:26:16.687Z,100879.84
2022-12-28T06:28:43.772Z,100880.50
2022-12-28T06:31:19.401Z,100879.06
2022-12-28T06:33:46.784Z,100865.00
2022-12-28T06:36:20.588Z,100863.25
2022-12-28T06:38:52.147Z,100867.59
2022-12-28T06:41:21.388Z,100860.81
2022-12-28T06:43:48.976Z,100860.63
2022-12-28T06:46:17.303Z,100860.63
2022-12-28T06:48:44.573Z,100858.75
2022-12-28T06:51:19.147Z,100857.44
2022-12-28T06:53:46.954Z,100849.09
2022-12-28T06:56:36.132Z,100850.25
2022-12-28T06:59:04.334Z,100854.44
2022-12-28T07:01:34.929Z,100845.19
2022-12-28T07:04:03.235Z,100847.63
2022-12-28T07:06:33.699Z,100843.75
2022-12-28T07:09:02.528Z,100845.41
2022-12-28T07:11:30.399Z,100840.03
2022-12-28T07:13:57.447Z,100862.25
2022-12-28T07:16:26.349Z,100856.75
2022-12-28T07:18:53.488Z,100853.47
2022-12-28T07:21:26.724Z,100857.50
2022-12-28T07:23:55.191Z,100853.84
2022-12-28T07:26:30.297Z,100852.63
2022-12-28T07:28:58.929Z,100839.88
2022-12-28T07:31:44.151Z,100836.16
2022-12-28T07:34:15.002Z,100834.53
2022-12-28T07:36:42.203Z,100839.06
2022-12-28T07:39:09.029Z,100837.84
2022-12-28T07:41:38.455Z,100840.69
2022-12-28T07:44:06.667Z,100840.50
2022-12-28T07:46:35.933Z,100834.16
2022-12-28T07:49:03.544Z,100836.41
2022-12-28T07:51:33.444Z,100829.22
2022-12-28T07:54:00.776Z,100827.59
2022-12-28T07:56:29.018Z,100833.31
2022-12-28T07:59:01.203Z,100832.09
2022-12-28T08:01:31.770Z,100828.00
2022-12-28T08:04:01.412Z,100820.00
2022-12-28T08:06:29.976Z,100817.31
2022-12-28T08:08:59.831Z,100806.00
2022-12-28T08:11:29.738Z,100804.16
2022-12-28T08:13:57.309Z,100797.59
2022-12-28T08:16:26.774Z,100791.03
2022-12-28T08:18:54.833Z,100800.88
2022-12-28T08:21:28.905Z,100794.31
2022-12-28T08:23:56.243Z,100801.69
2022-12-28T08:26:26.122Z,100799.03
2022-12-28T08:28:56.142Z,100795.97
2022-12-28T08:31:26.057Z,100793.88
2022-12-28T08:33:54.134Z,100806.22
2022-12-28T08:36:21.751Z,100789.97
2022-12-28T08:38:48.904Z,100801.91
2022-12-28T08:41:21.137Z,100786.88
2022-12-28T08:43:49.231Z,100786.63
2022-12-28T08:46:19.586Z,100781.97
2022-12-28T08:48:47.830Z,100783.38
2022-12-28T08:51:21.104Z,100780.25
2022-12-28T08:53:48.521Z,100783.59
2022-12-28T08:56:17.943Z,100785.25
2022-12-28T08:58:46.054Z,100781.69
2022-12-28T09:01:17.215Z,100780.38
2022-12-28T09:03:46.199Z,100785.13
2022-12-28T09:06:19.125Z,100784.91
2022-12-28T09:09:04.824Z,100780.66
2022-12-28T09:11:31.852Z,100788.47
2022-12-28T09:13:58.509Z,100788.78
2022-12-28T09:16:27.657Z,100787.41
2022-12-28T09:18:56.360Z,100783.84
2022-12-28T09:21:26.066Z,100789.28
2022-12-28T09:23:52.770Z,100786.81
2022-12-28T09:26:22.245Z,100787.44
2022-12-28T09:28:57.195Z,100789.50
2022-12-28T09:31:26.112Z,100789.47
2022-12-28T09:36:47.095Z,100785.97
2022-12-28T09:39:17.418Z,100788.00
2022-12-28T09:41:48.599Z,100774.41
2022-12-28T09:44:38.527Z,100777.69
2022-12-28T09:47:08.182Z,100780.16
2022-12-28T09:49:59.598Z,100768.84
2022-12-28T09:52:33.816Z,100778.75
2022-12-28T09:55:10.444Z,100779.56
2022-12-28T09:57:42.035Z,100772.31
2022-12-28T10:00:16.998Z,100774.28
2022-12-28T10:02:48.015Z,100776.63
2022-12-28T10:05:15.236Z,100780.50
2022-12-28T10:07:41.959Z,100781.31
2022-12-28T10:10:16.756Z,100782.00
2022-12-28T10:12:44.186Z,100770.53
2022-12-28T10:15:16.289Z,100769.72
2022-12-28T10:17:43.894Z,100762.91
2022-12-28T10:20:19.645Z,100758.84
2022-12-28T10:22:51.367Z,100755.38
2022-12-28T10:25:22.299Z,100753.28
2022-12-28T10:27:49.754Z,100751.38
2022-12-28T10:30:18.420Z,100744.50
2022-12-28T10:33:03.199Z,100742.94
2022-12-28T10:35:49.457Z,100739.19
2022-12-28T10:38:20.830Z,100731.16
2022-12-28T10:41:01.170Z,100724.09
2022-12-28T10:43:30.557Z,100728.53
2022-12-28T10:45:59.030Z,100733.44
2022-12-28T10:48:30.935Z,100717.53
2022-12-28T10:51:02.098Z,100710.00
2022-12-28T10:53:33.472Z,100704.78
2022-12-28T10:56:02.653Z,100705.91
2022-12-28T10:58:31.146Z,100696.81
2022-12-28T11:01:02.299Z,100696.38
2022-12-28T11:03:35.492Z,100694.50
2022-12-28T11:06:18.865Z,100685.19
2022-12-28T11:09:14.805Z,100677.16
2022-12-28T11:11:43.408Z,100669.28
2022-12-28T11:14:31.831Z,100667.25
2022-12-28T11:17:14.186Z,100672.91
2022-12-28T11:19:40.969Z,100664.28
2022-12-28T11:22:11.603Z,100669.47
2022-12-28T11:24:40.531Z,100664.97
2022-12-28T11:27:13.386Z,100666.09
2022-12-28T11:29:44.560Z,100659.91
2022-12-28T11:32:25.370Z,100650.53
2022-12-28T11:34:54.515Z,100653.59
2022-12-28T11:37:21.337Z,100644.22
2022-12-28T11:39:49.323Z,100649.69
2022-12-28T11:42:39.424Z,100643.88
2022-12-28T11:45:15.890Z,100642.97
2022-12-28T11:47:43.070Z,100631.66
2022-12-28T11:50:52.046Z,100638.06
2022-12-28T11:53:44.798Z,100627.53
2022-12-28T11:56:19.292Z,100626.63
2022-12-28T11:59:01.626Z,100622.09
2022-12-28T12:01:29.273Z,100618.78
2022-12-28T12:03:59.024Z,100619.72
2022-12-28T12:06:44.038Z,100614.34
2022-12-28T12:09:25.817Z,100606.44
2022-12-28T12:11:55.168Z,100600.63
2022-12-28T12:14:44.509Z,100584.53
2022-12-28T12:17:22.123Z,100580.81
2022-12-28T12:19:54.270Z,100584.88
2022-12-28T12:22:23.560Z,100579.41
2022-12-28T12:24:57.802Z,100577.69
2022-12-28T12:27:33.155Z,100572.44
2022-12-28T12:30:06.831Z,100566.97
2022-12-28T12:32:58.362Z,100556.91
2022-12-28T12:35:28.260Z,100559.00
2022-12-28T12:38:03.837Z,100551.88
2022-12-28T12:40:52.092Z,100543.97
2022-12-28T12:43:29.254Z,100538.84
2022-12-28T12:46:14.517Z,100538.34
2022-12-28T12:49:02.804Z,100534.63
2022-12-28T12:51:40.597Z,100531.69
2022-12-28T12:54:26.974Z,100534.16
2022-12-28T12:57:04.700Z,100529.63
2022-12-28T13:00:03.677Z,100521.22
2022-12-28T13:02:50.996Z,100527.97
2022-12-28T13:05:22.188Z,100529.38
2022-12-28T13:07:50.326Z,100524.47
2022-12-28T13:10:24.838Z,100526.69
2022-12-28T13:12:55.736Z,100513.84
2022-12-28T13:15:22.704Z,100514.78
2022-12-28T13:18:44.020Z,100523.16
2022-12-28T13:21:10.538Z,100512.31
2022-12-28T13:23:44.512Z,100512.91
2022-12-28T13:26:13.941Z,100512.44
2022-12-28T13:28:51.939Z,100509.16
2022-12-28T13:31:22.614Z,100503.22
2022-12-28T13:33:57.309Z,100500.28
2022-12-28T13:36:24.039Z,100496.47
2022-12-28T13:39:18.575Z,100492.00
2022-12-28T13:41:51.943Z,100483.75
2022-12-28T13:44:26.097Z,100488.06
2022-12-28T13:47:01.742Z,100475.69
2022-12-28T13:49:34.353Z,100470.78
2022-12-28T13:52:01.857Z,100477.31
2022-12-28T13:54:28.605Z,100472.06
2022-12-28T13:57:20.600Z,100471.72
2022-12-28T13:59:46.195Z,100473.56
2022-12-28T14:02:18.824Z,100469.28
2022-12-28T14:04:53.047Z,100471.59
2022-12-28T14:07:24.197Z,100462.13
2022-12-28T14:09:52.946Z,100462.97
2022-12-28T14:12:20.757Z,100452.06
2022-12-28T14:14:48.453Z,100450.09
2022-12-28T14:17:15.639Z,100446.03
2022-12-28T14:19:43.179Z,100444.03
2022-12-28T14:22:31.114Z,100431.22
2022-12-28T14:24:59.677Z,100434.34
2022-12-28T14:27:26.625Z,100430.03
2022-12-28T14:29:55.134Z,100420.56
2022-12-28T14:32:22.072Z,100413.59
2022-12-28T14:37:40.299Z,100427.66
2022-12-28T14:40:18.863Z,100426.50
2022-12-28T14:42:49.803Z,100421.22
2022-12-28T14:45:24.153Z,100421.81
2022-12-28T14:47:55.525Z,100419.81
2022-12-28T14:50:28.324Z,100410.50
2022-12-28T14:53:13.661Z,100406.16
2022-12-28T14:56:14.685Z,100405.84
2022-12-28T14:58:58.544Z,100406.44
2022-12-28T15:00:16.044Z,100427.16
2022-12-28T15:01:40.244Z,100399.09
2022-12-28T15:04:07.021Z,100402.75
2022-12-28T15:06:33.711Z,100408.94
2022-12-28T15:09:01.576Z,100404.72
2022-12-28T15:11:29.518Z,100400.16
2022-12-28T15:13:57.334Z,100402.75
2022-12-28T15:16:24.782Z,100403.81
2022-12-28T15:18:52.832Z,100406.59
2022-12-28T15:21:21.702Z,100396.06
2022-12-28T15:23:55.527Z,100387.88
2022-12-28T15:26:23.864Z,100379.28
2022-12-28T15:28:51.148Z,100381.16
2022-12-28T15:31:19.864Z,100377.88
2022-12-28T15:33:47.413Z,100374.59
2022-12-28T15:36:18.114Z,100370.88
2022-12-28T15:38:49.608Z,100374.38
2022-12-28T15:41:36.089Z,100371.31
2022-12-28T15:44:04.045Z,100374.28
2022-12-28T15:46:30.812Z,100372.53
2022-12-28T15:48:57.679Z,100372.66
2022-12-28T15:51:24.538Z,100371.94
2022-12-28T15:53:51.582Z,100367.16
2022-12-28T15:56:30.378Z,100360.53
2022-12-28T15:58:59.190Z,100352.50
2022-12-28T16:01:28.165Z,100346.53
2022-12-28T16:03:56.760Z,100341.50
2022-12-28T16:06:26.141Z,100334.59
2022-12-28T16:08:54.237Z,100324.94
2022-12-28T16:11:21.937Z,100340.81
2022-12-28T16:14:04.106Z,100340.97
2022-12-28T16:16:35.936Z,100339.63
2022-12-28T16:19:03.462Z,100333.44
2022-12-28T16:21:31.006Z,100332.38
2022-12-28T16:23:59.689Z,100334.69
2022-12-28T16:26:26.878Z,100330.63
2022-12-28T16:28:53.900Z,100326.34
2022-12-28T16:31:26.230Z,100335.47
2022-12-28T16:33:54.771Z,100325.50
2022-12-28T16:36:22.375Z,100326.38
2022-12-28T16:38:49.365Z,100326.56
2022-12-28T16:41:16.395Z,100326.91
2022-12-28T16:43:43.080Z,100326.09
2022-12-28T16:46:10.050Z,100332.34
2022-12-28T16:48:37.911Z,100329.75
2022-12-28T16:51:04.768Z,100340.88
2022-12-28T16:53:33.398Z,100337.34
2022-12-28T16:56:01.330Z,100325.34
2022-12-28T16:58:30.100Z,100328.69
2022-12-28T17:00:58.087Z,100329.41
2022-12-28T17:03:25.486Z,100329.84
2022-12-28T17:05:53.442Z,100334.78
2022-12-28T17:08:20.183Z,100331.53
2022-12-28T17:10:46.876Z,100330.97
2022-12-28T17:13:13.479Z,100330.56
2022-12-28T17:15:40.955Z,100321.25
2022-12-28T17:18:07.994Z,100309.69
2022-12-28T17:20:38.563Z,100308.88
2022-12-28T17:23:06.212Z,100313.66
2022-12-28T17:25:34.102Z,100299.31
2022-12-28T17:28:01.222Z,100296.75
2022-12-28T17:30:28.534Z,100295.22
2022-12-28T17:32:55.637Z,100293.59
2022-12-28T17:35:23.600Z,100287.63
2022-12-28T17:37:50.728Z,100278.28
2022-12-28T17:40:17.641Z,100285.44
2022-12-28T17:42:44.478Z,100271.28
2022-12-28T17:45:12.416Z,100266.50
2022-12-28T17:47:39.559Z,100277.16
2022-12-28T17:50:07.192Z,100272.25
2022-12-28T17:52:33.937Z,100271.19
2022-12-28T17:55:00.697Z,100263.50
2022-12-28T17:57:27.396Z,100253.06
2022-12-28T17:59:54.052Z,100260.25
2022-12-28T18:02:21.084Z,100246.47
2022-12-28T18:04:48.156Z,100246.38
2022-12-28T18:07:14.978Z,100227.25
2022-12-28T18:09:41.766Z,100227.09
2022-12-28T18:12:08.490Z,100213.97
2022-12-28T18:14:35.290Z,100222.69
2022-12-28T18:17:02.190Z,100219.19
2022-12-28T18:19:29.067Z,100204.78
2022-12-28T18:21:55.789Z,100202.38
2022-12-28T18:24:22.528Z,100193.69
2022-12-28T18:26:49.214Z,100176.81
2022-12-28T18:29:16.045Z,100185.72
2022-12-28T18:31:42.834Z,100177.63
2022-12-28T18:34:09.543Z,100162.00
2022-12-28T18:36:36.373Z,100173.84
2022-12-28T18:39:04.606Z,100173.69
2022-12-28T18:41:34.248Z,100166.81
2022-12-28T18:44:02.764Z,100173.66
2022-12-28T18:46:29.951Z,100167.31
2022-12-28T18:48:56.972Z,100166.38
2022-12-28T18:51:23.766Z,100165.59
2022-12-28T18:53:50.996Z,100175.31
2022-12-28T18:56:20.134Z,100165.78
2022-12-28T18:58:55.894Z,100163.59
2022-12-28T19:02:05.971Z,100169.50
2022-12-28T19:04:12.681Z,100166.22
2022-12-28T19:06:40.865Z,100153.16
2022-12-28T19:09:09.309Z,100151.25
2022-12-28T19:11:36.904Z,100160.81
2022-12-28T19:14:05.614Z,100147.91
2022-12-28T19:16:32.732Z,100152.97
2022-12-28T19:19:00.601Z,100144.41
2022-12-28T19:21:35.722Z,100147.00
2022-12-28T19:24:10.180Z,100143.28
2022-12-28T19:26:36.961Z,100140.41
2022-12-28T19:29:04.581Z,100140.56
2022-12-28T19:31:31.675Z,100143.50
2022-12-28T19:33:58.898Z,100134.97
2022-12-28T19:36:26.121Z,100130.66
2022-12-28T19:38:54.658Z,100116.66
2022-12-28T19:41:21.733Z,100121.94
2022-12-28T19:43:48.611Z,100121.94
2022-12-28T19:46:18.753Z,100126.25
2022-12-28T19:48:46.550Z,100130.63
2022-12-28T19:51:14.449Z,100113.78
2022-12-28T19:53:41.279Z,100109.75
2022-12-28T19:56:12.504Z,100116.25
2022-12-28T19:58:39.753Z,100104.69
2022-12-28T20:01:15.950Z,100108.78
2022-12-28T20:03:43.141Z,100099.03
2022-12-28T20:06:13.387Z,100104.31
2022-12-28T20:08:40.522Z,100105.88
2022-12-28T20:11:07.220Z,100086.00
2022-12-28T20:13:34.566Z,100097.13
2022-12-28T20:16:01.351Z,100089.94
2022-12-28T20:18:28.255Z,100096.94
2022-12-28T20:23:48.507Z,100081.31
2022-12-28T20:26:15.953Z,100077.25
2022-12-28T20:28:42.676Z,100077.31
2022-12-28T20:31:13.019Z,100080.22
2022-12-28T20:33:40.285Z,100065.59
2022-12-28T20:36:10.619Z,100062.53
2022-12-28T20:38:37.893Z,100070.06
2022-12-28T20:41:44.515Z,100058.09
2022-12-28T20:44:14.327Z,100057.97
2022-12-28T20:46:44.755Z,100052.25
2022-12-28T20:49:12.237Z,100057.53
2022-12-28T20:51:38.991Z,100042.53
2022-12-28T20:54:05.950Z,100048.69
2022-12-28T20:56:32.934Z,100042.34
2022-12-28T20:58:59.634Z,100037.38
2022-12-28T21:01:26.387Z,100030.69
2022-12-28T21:03:53.209Z,100029.06
2022-12-28T21:06:20.144Z,100026.47
2022-12-28T21:08:47.011Z,100028.78
2022-12-28T21:11:14.094Z,100015.88
2022-12-28T21:13:44.687Z,100022.03
2022-12-28T21:16:13.154Z,100025.81
2022-12-28T21:18:40.228Z,100016.84
2022-12-28T21:21:14.608Z,100016.84
2022-12-28T21:23:41.642Z,100022.91
2022-12-28T21:26:13.725Z,100020.34
2022-12-28T21:28:40.445Z,100019.78
2022-12-28T21:31:07.497Z,100018.56
2022-12-28T21:33:34.246Z,100016.50
2022-12-28T21:36:06.697Z,100023.06
2022-12-28T21:38:37.158Z,100015.59
2022-12-28T21:41:06.677Z,100010.72
2022-12-28T21:43:33.414Z,100013.22
2022-12-28T21:46:09.300Z,100014.69
2022-12-28T21:48:36.978Z,100012.66
2022-12-28T21:51:29.235Z,100004.44
2022-12-28T21:53:56.949Z,100002.47
2022-12-28T21:56:23.961Z,100006.47
2022-12-28T21:58:50.979Z,99998.88
2022-12-28T22:01:36.541Z,100002.81
2022-12-28T22:04:23.107Z,100004.00
2022-12-28T22:06:49.766Z,100006.28
2022-12-28T22:09:35.069Z,100001.97
2022-12-28T22:12:20.467Z,99991.41
2022-12-28T22:14:47.052Z,99990.91
2022-12-28T22:17:14.633Z,99995.06
2022-12-28T22:19:41.680Z,100007.53
2022-12-28T22:22:08.503Z,100000.75
2022-12-28T22:24:35.171Z,99997.16
2022-12-28T22:27:01.828Z,99996.19
2022-12-28T22:29:28.481Z,99990.00
2022-12-28T22:31:55.174Z,99984.59
2022-12-28T22:34:21.922Z,99987.91
2022-12-28T22:36:48.600Z,99986.47
2022-12-28T22:39:15.220Z,99977.34
2022-12-28T22:41:41.949Z,99977.66
2022-12-28T22:44:09.821Z,99988.19
2022-12-28T22:46:36.583Z,99981.94
2022-12-28T22:49:03.246Z,99982.84
2022-12-28T22:51:29.899Z,99987.06
2022-12-28T22:53:56.576Z,99982.13
2022-12-28T22:56:23.499Z,99982.13
2022-12-28T22:58:50.332Z,99988.03
2022-12-28T23:01:19.446Z,99988.84
2022-12-28T23:03:47.807Z,99975.31
2022-12-28T23:06:18.476Z,99970.31
2022-12-28T23:08:46.106Z,99971.81
2022-12-28T23:11:34.329Z,99967.56
2022-12-28T23:14:20.320Z,99965.47
2022-12-28T23:16:48.175Z,99966.19
2022-12-28T23:19:33.948Z,99960.31
2022-12-28T23:22:21.273Z,99959.06
2022-12-28T23:25:06.735Z,99956.19
2022-12-28T23:27:43.064Z,99954.56
2022-12-28T23:30:19.658Z,99952.25
2022-12-28T23:32:51.464Z,99940.97
2022-12-28T23:35:19.673Z,99941.41
2022-12-28T23:37:46.849Z,99935.22
2022-12-28T23:40:16.079Z,99936.03
2022-12-28T23:42:43.898Z,99930.84
2022-12-28T23:45:13.828Z,99931.81
2022-12-28T23:47:42.232Z,99928.56
2022-12-28T23:50:09.541Z,99927.06
2022-12-28T23:52:36.597Z,99929.06
2022-12-28T23:55:03.756Z,99928.88
2022-12-28T23:57:30.516Z,99919.59
2022-12-28T23:59:57.275Z,99930.38
